sensor_id;sensor_type;location;lat;lon;timestamp;pressure;altitude;pressure_sealevel;temperature;humidity
41686;BME280;27370;42.764;23.432;2023-04-06T00:01:42;95369.56;;;-0.44;100.00
41686;BME280;27370;42.764;23.432;2023-04-06T00:04:08;95360.34;;;-0.46;100.00
41686;BME280;27370;42.764;23.432;2023-04-06T00:06:33;95340.66;;;-0.45;100.00
41686;BME280;27370;42.764;23.432;2023-04-06T00:08:59;95357.59;;;-0.50;100.00
41686;BME280;27370;42.764;23.432;2023-04-06T00:11:25;95340.19;;;-0.47;100.00
41686;BME280;27370;42.764;23.432;2023-04-06T00:13:51;95343.31;;;-0.45;100.00
41686;BME280;27370;42.764;23.432;2023-04-06T00:16:16;95340.13;;;-0.35;100.00
41686;BME280;27370;42.764;23.432;2023-04-06T00:18:42;95340.66;;;-0.45;100.00
41686;BME280;27370;42.764;23.432;2023-04-06T00:21:07;95339.53;;;-0.44;100.00
41686;BME280;27370;42.764;23.432;2023-04-06T00:23:33;95336.75;;;-0.48;100.00
41686;BME280;27370;42.764;23.432;2023-04-06T00:25:58;95333.19;;;-0.40;100.00
41686;BME280;27370;42.764;23.432;2023-04-06T00:28:24;95325.19;;;-0.40;100.00
41686;BME280;27370;42.764;23.432;2023-04-06T00:30:52;95320.91;;;-0.44;100.00
41686;BME280;27370;42.764;23.432;2023-04-06T00:33:19;95313.34;;;-0.42;100.00
41686;BME280;27370;42.764;23.432;2023-04-06T00:35:44;95307.28;;;-0.43;100.00
41686;BME280;27370;42.764;23.432;2023-04-06T00:38:11;95315.59;;;-0.44;100.00
41686;BME280;27370;42.764;23.432;2023-04-06T00:40:37;95312.16;;;-0.45;100.00
41686;BME280;27370;42.764;23.432;2023-04-06T00:43:05;95313.53;;;-0.35;100.00
41686;BME280;27370;42.764;23.432;2023-04-06T00:45:31;95298.94;;;-0.41;100.00
41686;BME280;27370;42.764;23.432;2023-04-06T00:47:57;95306.25;;;-0.22;100.00
41686;BME280;27370;42.764;23.432;2023-04-06T00:50:22;95303.50;;;-0.42;100.00
41686;BME280;27370;42.764;23.432;2023-04-06T00:52:48;95308.97;;;-0.35;100.00
41686;BME280;27370;42.764;23.432;2023-04-06T00:55:14;95300.56;;;-0.52;100.00
41686;BME280;27370;42.764;23.432;2023-04-06T00:57:42;95300.81;;;-0.57;100.00
41686;BME280;27370;42.764;23.432;2023-04-06T01:00:08;95297.56;;;-0.67;100.00
41686;BME280;27370;42.764;23.432;2023-04-06T01:02:36;95300.72;;;-0.61;100.00
41686;BME280;27370;42.764;23.432;2023-04-06T01:05:02;95290.56;;;-0.71;100.00
41686;BME280;27370;42.764;23.432;2023-04-06T01:07:36;95294.69;;;-0.74;100.00
41686;BME280;27370;42.764;23.432;2023-04-06T01:10:07;95291.13;;;-0.66;100.00
41686;BME280;27370;42.764;23.432;2023-04-06T01:12:34;95294.13;;;-0.51;100.00
41686;BME280;27370;42.764;23.432;2023-04-06T01:15:05;95294.13;;;-0.51;100.00
41686;BME280;27370;42.764;23.432;2023-04-06T01:17:34;95291.22;;;-0.62;100.00
41686;BME280;27370;42.764;23.432;2023-04-06T01:20:07;95280.53;;;-0.78;100.00
41686;BME280;27370;42.764;23.432;2023-04-06T01:22:34;95289.31;;;-0.62;100.00
41686;BME280;27370;42.764;23.432;2023-04-06T01:25:02;95286.06;;;-0.55;100.00
41686;BME280;27370;42.764;23.432;2023-04-06T01:27:41;95277.91;;;-0.62;100.00
41686;BME280;27370;42.764;23.432;2023-04-06T01:30:27;95272.50;;;-0.66;100.00
41686;BME280;27370;42.764;23.432;2023-04-06T01:32:56;95273.78;;;-0.75;100.00
41686;BME280;27370;42.764;23.432;2023-04-06T01:35:40;95268.97;;;-0.85;100.00
41686;BME280;27370;42.764;23.432;2023-04-06T01:38:15;95274.38;;;-0.82;100.00
41686;BME280;27370;42.764;23.432;2023-04-06T01:40:41;95271.53;;;-0.89;100.00
41686;BME280;27370;42.764;23.432;2023-04-06T01:43:06;95268.13;;;-0.89;100.00
41686;BME280;27370;42.764;23.432;2023-04-06T01:45:45;95263.47;;;-0.77;100.00
41686;BME280;27370;42.764;23.432;2023-04-06T01:48:15;95261.09;;;-0.82;100.00
41686;BME280;27370;42.764;23.432;2023-04-06T01:50:41;95247.28;;;-0.87;100.00
41686;BME280;27370;42.764;23.432;2023-04-06T01:53:08;95265.31;;;-0.65;100.00
41686;BME280;27370;42.764;23.432;2023-04-06T01:55:35;95257.81;;;-0.75;100.00
41686;BME280;27370;42.764;23.432;2023-04-06T01:58:33;95259.09;;;-0.85;100.00
41686;BME280;27370;42.764;23.432;2023-04-06T02:00:59;95262.88;;;-0.86;100.00
41686;BME280;27370;42.764;23.432;2023-04-06T02:03:29;95258.69;;;-0.87;100.00
41686;BME280;27370;42.764;23.432;2023-04-06T02:06:03;95262.44;;;-0.72;100.00
41686;BME280;27370;42.764;23.432;2023-04-06T02:08:33;95249.50;;;-0.74;100.00
41686;BME280;27370;42.764;23.432;2023-04-06T02:10:59;95248.59;;;-0.66;100.00
41686;BME280;27370;42.764;23.432;2023-04-06T02:13:31;95256.78;;;-0.71;100.00
41686;BME280;27370;42.764;23.432;2023-04-06T02:15:57;95237.84;;;-0.85;100.00
41686;BME280;27370;42.764;23.432;2023-04-06T02:18:22;95243.69;;;-0.79;100.00
41686;BME280;27370;42.764;23.432;2023-04-06T02:20:48;95246.84;;;-0.74;100.00
41686;BME280;27370;42.764;23.432;2023-04-06T02:23:14;95248.16;;;-0.68;100.00
41686;BME280;27370;42.764;23.432;2023-04-06T02:25:40;95247.34;;;-0.68;100.00
41686;BME280;27370;42.764;23.432;2023-04-06T02:28:06;95249.09;;;-0.60;100.00
41686;BME280;27370;42.764;23.432;2023-04-06T02:30:31;95239.38;;;-0.84;100.00
41686;BME280;27370;42.764;23.432;2023-04-06T02:33:00;95255.25;;;-0.87;100.00
41686;BME280;27370;42.764;23.432;2023-04-06T02:35:28;95244.28;;;-0.86;100.00
41686;BME280;27370;42.764;23.432;2023-04-06T02:37:54;95246.25;;;-0.83;100.00
41686;BME280;27370;42.764;23.432;2023-04-06T02:40:20;95253.13;;;-0.66;100.00
41686;BME280;27370;42.764;23.432;2023-04-06T02:42:46;95248.56;;;-0.81;100.00
41686;BME280;27370;42.764;23.432;2023-04-06T02:45:13;95256.28;;;-0.76;100.00
41686;BME280;27370;42.764;23.432;2023-04-06T02:47:42;95258.34;;;-0.70;100.00
41686;BME280;27370;42.764;23.432;2023-04-06T02:50:09;95244.88;;;-0.77;100.00
41686;BME280;27370;42.764;23.432;2023-04-06T02:52:41;95245.16;;;-0.66;100.00
41686;BME280;27370;42.764;23.432;2023-04-06T02:55:09;95252.66;;;-0.68;100.00
41686;BME280;27370;42.764;23.432;2023-04-06T02:57:34;95247.09;;;-0.79;100.00
41686;BME280;27370;42.764;23.432;2023-04-06T03:00:00;95253.47;;;-0.68;100.00
41686;BME280;27370;42.764;23.432;2023-04-06T03:02:34;95248.59;;;-0.66;100.00
41686;BME280;27370;42.764;23.432;2023-04-06T03:05:06;95257.13;;;-0.72;100.00
41686;BME280;27370;42.764;23.432;2023-04-06T03:07:36;95252.16;;;-0.74;100.00
41686;BME280;27370;42.764;23.432;2023-04-06T03:10:02;95250.03;;;-0.84;100.00
41686;BME280;27370;42.764;23.432;2023-04-06T03:12:30;95256.56;;;-0.66;100.00
41686;BME280;27370;42.764;23.432;2023-04-06T03:15:15;95249.53;;;-0.58;100.00
41686;BME280;27370;42.764;23.432;2023-04-06T03:17:46;95253.22;;;-0.63;100.00
41686;BME280;27370;42.764;23.432;2023-04-06T03:20:26;95253.63;;;-0.60;100.00
41686;BME280;27370;42.764;23.432;2023-04-06T03:22:51;95261.25;;;-0.75;100.00
41686;BME280;27370;42.764;23.432;2023-04-06T03:25:21;95253.91;;;-0.66;100.00
41686;BME280;27370;42.764;23.432;2023-04-06T03:27:47;95250.34;;;-0.70;100.00
41686;BME280;27370;42.764;23.432;2023-04-06T03:30:16;95261.97;;;-0.62;100.00
41686;BME280;27370;42.764;23.432;2023-04-06T03:32:44;95253.47;;;-0.68;100.00
41686;BME280;27370;42.764;23.432;2023-04-06T03:35:10;95251.59;;;-0.67;100.00
41686;BME280;27370;42.764;23.432;2023-04-06T03:37:36;95256.28;;;-0.76;100.00
41686;BME280;27370;42.764;23.432;2023-04-06T03:40:02;95245.94;;;-0.66;100.00
41686;BME280;27370;42.764;23.432;2023-04-06T03:42:28;95240.41;;;-0.73;100.00
41686;BME280;27370;42.764;23.432;2023-04-06T03:45:00;95249.59;;;-0.70;100.00
41686;BME280;27370;42.764;23.432;2023-04-06T03:47:25;95239.81;;;-0.82;100.00
41686;BME280;27370;42.764;23.432;2023-04-06T03:49:55;95227.69;;;-0.95;100.00
41686;BME280;27370;42.764;23.432;2023-04-06T03:52:21;95243.94;;;-0.84;100.00
41686;BME280;27370;42.764;23.432;2023-04-06T03:54:50;95247.72;;;-0.85;100.00
41686;BME280;27370;42.764;23.432;2023-04-06T03:57:15;95234.16;;;-0.80;100.00
41686;BME280;27370;42.764;23.432;2023-04-06T03:59:40;95241.63;;;-0.86;100.00
41686;BME280;27370;42.764;23.432;2023-04-06T04:02:06;95241.28;;;-0.84;100.00
41686;BME280;27370;42.764;23.432;2023-04-06T04:04:32;95235.69;;;-0.95;100.00
41686;BME280;27370;42.764;23.432;2023-04-06T04:06:57;95234.56;;;-0.94;100.00
41686;BME280;27370;42.764;23.432;2023-04-06T04:09:23;95233.22;;;-0.88;100.00
41686;BME280;27370;42.764;23.432;2023-04-06T04:11:49;95231.22;;;-0.91;100.00
41686;BME280;27370;42.764;23.432;2023-04-06T04:14:15;95230.31;;;-0.83;100.00
41686;BME280;27370;42.764;23.432;2023-04-06T04:16:41;95237.00;;;-0.89;100.00
41686;BME280;27370;42.764;23.432;2023-04-06T04:19:07;95238.75;;;-0.93;100.00
41686;BME280;27370;42.764;23.432;2023-04-06T04:21:33;95235.88;;;-0.88;100.00
41686;BME280;27370;42.764;23.432;2023-04-06T04:24:03;95247.88;;;-0.78;100.00
41686;BME280;27370;42.764;23.432;2023-04-06T04:26:31;95250.63;;;-0.75;100.00
41686;BME280;27370;42.764;23.432;2023-04-06T04:28:57;95245.38;;;-0.71;100.00
41686;BME280;27370;42.764;23.432;2023-04-06T04:31:22;95249.88;;;-0.59;100.00
41686;BME280;27370;42.764;23.432;2023-04-06T04:33:52;95246.44;;;-0.60;100.00
41686;BME280;27370;42.764;23.432;2023-04-06T04:36:24;95235.09;;;-0.73;100.00
41686;BME280;27370;42.764;23.432;2023-04-06T04:38:52;95252.09;;;-0.62;100.00
41686;BME280;27370;42.764;23.432;2023-04-06T04:41:18;95249.34;;;-0.49;100.00
41686;BME280;27370;42.764;23.432;2023-04-06T04:43:44;95248.22;;;-0.48;100.00
41686;BME280;27370;42.764;23.432;2023-04-06T04:46:12;95257.25;;;-0.37;100.00
41686;BME280;27370;42.764;23.432;2023-04-06T04:48:40;95249.84;;;-0.28;100.00
41686;BME280;27370;42.764;23.432;2023-04-06T04:51:06;95242.28;;;-0.26;100.00
41686;BME280;27370;42.764;23.432;2023-04-06T04:53:51;95252.34;;;-0.19;100.00
41686;BME280;27370;42.764;23.432;2023-04-06T04:56:21;95247.66;;;-0.07;100.00
41686;BME280;27370;42.764;23.432;2023-04-06T04:58:51;95248.84;;;0.12;100.00
41686;BME280;27370;42.764;23.432;2023-04-06T05:01:17;95236.75;;;-0.02;100.00
41686;BME280;27370;42.764;23.432;2023-04-06T05:03:44;95244.78;;;0.18;100.00
41686;BME280;27370;42.764;23.432;2023-04-06T05:06:13;95250.88;;;0.18;100.00
41686;BME280;27370;42.764;23.432;2023-04-06T05:08:40;95248.13;;;0.15;100.00
41686;BME280;27370;42.764;23.432;2023-04-06T05:11:06;95247.03;;;0.35;100.00
41686;BME280;27370;42.764;23.432;2023-04-06T05:13:36;95252.78;;;0.37;100.00
41686;BME280;27370;42.764;23.432;2023-04-06T05:16:07;95258.25;;;0.44;100.00
41686;BME280;27370;42.764;23.432;2023-04-06T05:18:34;95251.81;;;0.45;100.00
41686;BME280;27370;42.764;23.432;2023-04-06T05:21:01;95240.31;;;0.41;100.00
41686;BME280;27370;42.764;23.432;2023-04-06T05:23:46;95240.47;;;0.29;100.00
41686;BME280;27370;42.764;23.432;2023-04-06T05:26:12;95248.59;;;0.36;100.00
41686;BME280;27370;42.764;23.432;2023-04-06T05:28:38;95238.50;;;0.45;100.00
41686;BME280;27370;42.764;23.432;2023-04-06T05:31:04;95245.09;;;0.51;100.00
41686;BME280;27370;42.764;23.432;2023-04-06T05:33:38;95242.16;;;0.56;100.00
41686;BME280;27370;42.764;23.432;2023-04-06T05:36:09;95247.13;;;0.39;100.00
41686;BME280;27370;42.764;23.432;2023-04-06T05:38:39;95240.19;;;0.53;100.00
41686;BME280;27370;42.764;23.432;2023-04-06T05:41:25;95238.50;;;0.65;100.00
41686;BME280;27370;42.764;23.432;2023-04-06T05:43:51;95242.56;;;0.58;100.00
41686;BME280;27370;42.764;23.432;2023-04-06T05:46:17;95233.53;;;0.63;100.00
41686;BME280;27370;42.764;23.432;2023-04-06T05:48:43;95238.66;;;0.52;100.00
41686;BME280;27370;42.764;23.432;2023-04-06T05:51:11;95243.63;;;0.73;100.00
41686;BME280;27370;42.764;23.432;2023-04-06T05:53:47;95241.88;;;0.81;100.00
41686;BME280;27370;42.764;23.432;2023-04-06T05:56:13;95238.50;;;0.84;100.00
41686;BME280;27370;42.764;23.432;2023-04-06T05:58:39;95224.97;;;0.93;100.00
41686;BME280;27370;42.764;23.432;2023-04-06T06:01:07;95232.38;;;1.26;100.00
41686;BME280;27370;42.764;23.432;2023-04-06T06:03:39;95239.09;;;1.39;100.00
41686;BME280;27370;42.764;23.432;2023-04-06T06:06:05;95238.84;;;1.47;100.00
41686;BME280;27370;42.764;23.432;2023-04-06T06:08:44;95237.00;;;1.29;100.00
41686;BME280;27370;42.764;23.432;2023-04-06T06:11:13;95245.00;;;1.51;100.00
41686;BME280;27370;42.764;23.432;2023-04-06T06:13:39;95242.72;;;1.27;100.00
41686;BME280;27370;42.764;23.432;2023-04-06T06:16:05;95235.94;;;1.56;100.00
41686;BME280;27370;42.764;23.432;2023-04-06T06:18:33;95238.19;;;1.31;100.00
41686;BME280;27370;42.764;23.432;2023-04-06T06:20:59;95225.81;;;1.19;100.00
41686;BME280;27370;42.764;23.432;2023-04-06T06:23:25;95228.41;;;0.93;100.00
41686;BME280;27370;42.764;23.432;2023-04-06T06:25:52;95231.00;;;1.12;100.00
41686;BME280;27370;42.764;23.432;2023-04-06T06:28:20;95228.28;;;1.32;100.00
41686;BME280;27370;42.764;23.432;2023-04-06T06:30:46;95241.00;;;1.15;100.00
41686;BME280;27370;42.764;23.432;2023-04-06T06:33:16;95242.19;;;1.18;100.00
41686;BME280;27370;42.764;23.432;2023-04-06T06:35:42;95236.69;;;1.11;100.00
41686;BME280;27370;42.764;23.432;2023-04-06T06:38:07;95242.03;;;1.34;100.00
41686;BME280;27370;42.764;23.432;2023-04-06T06:40:33;95240.56;;;1.13;100.00
41686;BME280;27370;42.764;23.432;2023-04-06T06:42:59;95233.50;;;1.02;100.00
41686;BME280;27370;42.764;23.432;2023-04-06T06:45:49;95245.00;;;1.06;100.00
41686;BME280;27370;42.764;23.432;2023-04-06T06:48:15;95238.00;;;0.98;100.00
41686;BME280;27370;42.764;23.432;2023-04-06T06:50:41;95242.88;;;1.15;100.00
41686;BME280;27370;42.764;23.432;2023-04-06T06:53:06;95242.94;;;1.18;100.00
41686;BME280;27370;42.764;23.432;2023-04-06T06:55:33;95245.00;;;1.06;100.00
41686;BME280;27370;42.764;23.432;2023-04-06T06:57:58;95242.91;;;0.96;100.00
41686;BME280;27370;42.764;23.432;2023-04-06T07:00:24;95238.72;;;0.95;100.00
41686;BME280;27370;42.764;23.432;2023-04-06T07:02:50;95244.63;;;1.07;100.00
41686;BME280;27370;42.764;23.432;2023-04-06T07:05:16;95250.19;;;1.18;100.00
41686;BME280;27370;42.764;23.432;2023-04-06T07:07:42;95242.66;;;1.23;100.00
41686;BME280;27370;42.764;23.432;2023-04-06T07:10:08;95248.63;;;1.17;100.00
41686;BME280;27370;42.764;23.432;2023-04-06T07:12:37;95251.59;;;1.35;100.00
41686;BME280;27370;42.764;23.432;2023-04-06T07:15:02;95245.00;;;1.51;100.00
41686;BME280;27370;42.764;23.432;2023-04-06T07:17:28;95239.28;;;1.49;100.00
41686;BME280;27370;42.764;23.432;2023-04-06T07:19:53;95255.16;;;1.65;100.00
41686;BME280;27370;42.764;23.432;2023-04-06T07:22:19;95247.16;;;1.42;100.00
41686;BME280;27370;42.764;23.432;2023-04-06T07:24:44;95254.91;;;1.51;100.00
41686;BME280;27370;42.764;23.432;2023-04-06T07:27:10;95253.31;;;1.69;100.00
41686;BME280;27370;42.764;23.432;2023-04-06T07:29:35;95240.16;;;1.57;100.00
41686;BME280;27370;42.764;23.432;2023-04-06T07:32:01;95247.47;;;1.60;100.00
41686;BME280;27370;42.764;23.432;2023-04-06T07:34:27;95246.34;;;1.61;100.00
41686;BME280;27370;42.764;23.432;2023-04-06T07:36:53;95245.91;;;1.59;100.00
41686;BME280;27370;42.764;23.432;2023-04-06T07:39:19;95245.41;;;1.76;100.00
41686;BME280;27370;42.764;23.432;2023-04-06T07:41:45;95241.59;;;1.51;100.00
41686;BME280;27370;42.764;23.432;2023-04-06T07:44:11;95240.66;;;1.40;100.00
41686;BME280;27370;42.764;23.432;2023-04-06T07:46:37;95248.03;;;1.27;100.00
41686;BME280;27370;42.764;23.432;2023-04-06T07:49:03;95242.00;;;1.53;100.00
41686;BME280;27370;42.764;23.432;2023-04-06T07:51:31;95246.34;;;1.88;100.00
41686;BME280;27370;42.764;23.432;2023-04-06T07:53:57;95246.75;;;2.16;100.00
41686;BME280;27370;42.764;23.432;2023-04-06T07:56:23;95251.78;;;1.95;100.00
41686;BME280;27370;42.764;23.432;2023-04-06T07:58:48;95251.84;;;1.98;100.00
41686;BME280;27370;42.764;23.432;2023-04-06T08:01:14;95249.53;;;2.23;100.00
41686;BME280;27370;42.764;23.432;2023-04-06T08:03:39;95255.91;;;2.15;100.00
41686;BME280;27370;42.764;23.432;2023-04-06T08:06:05;95246.72;;;2.12;100.00
41686;BME280;27370;42.764;23.432;2023-04-06T08:08:31;95251.47;;;2.26;100.00
41686;BME280;27370;42.764;23.432;2023-04-06T08:10:57;95243.63;;;2.10;100.00
41686;BME280;27370;42.764;23.432;2023-04-06T08:13:23;95246.09;;;2.23;100.00
41686;BME280;27370;42.764;23.432;2023-04-06T08:15:48;95247.75;;;2.31;100.00
41686;BME280;27370;42.764;23.432;2023-04-06T08:18:14;95246.66;;;2.09;100.00
41686;BME280;27370;42.764;23.432;2023-04-06T08:20:40;95227.84;;;2.02;100.00
41686;BME280;27370;42.764;23.432;2023-04-06T08:23:05;95242.25;;;2.20;100.00
41686;BME280;27370;42.764;23.432;2023-04-06T08:25:34;95239.44;;;2.39;100.00
41686;BME280;27370;42.764;23.432;2023-04-06T08:28:00;95245.91;;;2.68;100.00
41686;BME280;27370;42.764;23.432;2023-04-06T08:30:26;95254.75;;;2.72;100.00
41686;BME280;27370;42.764;23.432;2023-04-06T08:32:51;95247.06;;;2.71;100.00
41686;BME280;27370;42.764;23.432;2023-04-06T08:35:17;95250.66;;;2.22;100.00
41686;BME280;27370;42.764;23.432;2023-04-06T08:37:42;95251.06;;;2.51;100.00
41686;BME280;27370;42.764;23.432;2023-04-06T08:40:08;95242.44;;;2.34;100.00
41686;BME280;27370;42.764;23.432;2023-04-06T08:42:44;95247.81;;;2.38;100.00
41686;BME280;27370;42.764;23.432;2023-04-06T08:45:09;95228.53;;;2.52;100.00
41686;BME280;27370;42.764;23.432;2023-04-06T08:47:39;95234.03;;;2.32;100.00
41686;BME280;27370;42.764;23.432;2023-04-06T08:50:05;95254.97;;;2.60;100.00
41686;BME280;27370;42.764;23.432;2023-04-06T08:52:32;95239.25;;;2.85;100.00
41686;BME280;27370;42.764;23.432;2023-04-06T08:54:58;95251.63;;;3.00;100.00
41686;BME280;27370;42.764;23.432;2023-04-06T08:57:24;95242.16;;;3.06;100.00
41686;BME280;27370;42.764;23.432;2023-04-06T08:59:51;95238.41;;;2.78;100.00
41686;BME280;27370;42.764;23.432;2023-04-06T09:02:18;95242.16;;;2.73;100.00
41686;BME280;27370;42.764;23.432;2023-04-06T09:04:48;95241.78;;;3.08;100.00
41686;BME280;27370;42.764;23.432;2023-04-06T09:07:14;95258.03;;;3.29;100.00
41686;BME280;27370;42.764;23.432;2023-04-06T09:09:40;95243.88;;;3.25;100.00
41686;BME280;27370;42.764;23.432;2023-04-06T09:12:25;95242.91;;;3.44;100.00
41686;BME280;27370;42.764;23.432;2023-04-06T09:14:52;95245.00;;;3.65;100.00
41686;BME280;27370;42.764;23.432;2023-04-06T09:17:31;95246.16;;;3.67;100.00
41686;BME280;27370;42.764;23.432;2023-04-06T09:20:00;95246.59;;;3.73;100.00
41686;BME280;27370;42.764;23.432;2023-04-06T09:22:35;95238.59;;;3.80;100.00
41686;BME280;27370;42.764;23.432;2023-04-06T09:25:01;95243.31;;;3.97;100.00
41686;BME280;27370;42.764;23.432;2023-04-06T09:27:36;95228.38;;;3.93;100.00
41686;BME280;27370;42.764;23.432;2023-04-06T09:30:11;95229.34;;;3.71;100.00
41686;BME280;27370;42.764;23.432;2023-04-06T09:32:50;95239.59;;;4.09;100.00
41686;BME280;27370;42.764;23.432;2023-04-06T09:35:16;95239.59;;;4.09;100.00
41686;BME280;27370;42.764;23.432;2023-04-06T09:37:43;95236.16;;;4.09;100.00
41686;BME280;27370;42.764;23.432;2023-04-06T09:40:09;95242.66;;;4.11;100.00
41686;BME280;27370;42.764;23.432;2023-04-06T09:42:35;95235.69;;;3.99;100.00
41686;BME280;27370;42.764;23.432;2023-04-06T09:45:01;95228.78;;;3.98;100.00
41686;BME280;27370;42.764;23.432;2023-04-06T09:47:28;95225.78;;;4.07;100.00
41686;BME280;27370;42.764;23.432;2023-04-06T09:49:57;95236.16;;;4.09;100.00
41686;BME280;27370;42.764;23.432;2023-04-06T09:52:31;95223.28;;;4.36;100.00
41686;BME280;27370;42.764;23.432;2023-04-06T09:55:02;95218.78;;;4.54;100.00
41686;BME280;27370;42.764;23.432;2023-04-06T10:00:11;95227.84;;;5.33;100.00
41686;BME280;27370;42.764;23.432;2023-04-06T10:05:42;95229.03;;;5.99;100.00
41686;BME280;27370;42.764;23.432;2023-04-06T10:08:10;95216.00;;;6.01;100.00
41686;BME280;27370;42.764;23.432;2023-04-06T10:10:37;95222.78;;;6.52;100.00
41686;BME280;27370;42.764;23.432;2023-04-06T10:13:03;95224.03;;;6.16;100.00
41686;BME280;27370;42.764;23.432;2023-04-06T10:15:30;95214.81;;;6.24;100.00
41686;BME280;27370;42.764;23.432;2023-04-06T10:17:57;95219.03;;;6.10;100.00
41686;BME280;27370;42.764;23.432;2023-04-06T10:20:39;95212.91;;;5.67;100.00
41686;BME280;27370;42.764;23.432;2023-04-06T10:23:09;95217.53;;;5.70;100.00
41686;BME280;27370;42.764;23.432;2023-04-06T10:25:35;95204.84;;;5.71;100.00
41686;BME280;27370;42.764;23.432;2023-04-06T10:28:06;95199.09;;;6.04;100.00
41686;BME280;27370;42.764;23.432;2023-04-06T10:30:33;95196.78;;;6.10;100.00
41686;BME280;27370;42.764;23.432;2023-04-06T10:32:59;95206.38;;;6.11;100.00
41686;BME280;27370;42.764;23.432;2023-04-06T10:35:36;95202.53;;;5.62;100.00
41686;BME280;27370;42.764;23.432;2023-04-06T10:38:03;95195.22;;;6.09;100.00
41686;BME280;27370;42.764;23.432;2023-04-06T10:40:29;95188.50;;;6.81;100.00
41686;BME280;27370;42.764;23.432;2023-04-06T10:43:07;95189.28;;;7.44;100.00
41686;BME280;27370;42.764;23.432;2023-04-06T10:45:33;95182.25;;;6.95;100.00
41686;BME280;27370;42.764;23.432;2023-04-06T10:47:59;95179.09;;;7.14;100.00
41686;BME280;27370;42.764;23.432;2023-04-06T10:50:25;95189.44;;;6.28;100.00
41686;BME280;27370;42.764;23.432;2023-04-06T10:53:03;95197.88;;;6.41;100.00
41686;BME280;27370;42.764;23.432;2023-04-06T10:55:29;95190.66;;;6.13;100.00
41686;BME280;27370;42.764;23.432;2023-04-06T10:57:56;95182.41;;;6.66;100.00
41686;BME280;27370;42.764;23.432;2023-04-06T11:00:21;95180.13;;;6.61;100.00
41686;BME280;27370;42.764;23.432;2023-04-06T11:02:47;95178.56;;;6.64;100.00
41686;BME280;27370;42.764;23.432;2023-04-06T11:05:14;95178.19;;;6.62;100.00
41686;BME280;27370;42.764;23.432;2023-04-06T11:07:40;95170.84;;;6.69;100.00
41686;BME280;27370;42.764;23.432;2023-04-06T11:10:08;95166.25;;;7.36;100.00
41686;BME280;27370;42.764;23.432;2023-04-06T11:12:33;95163.78;;;7.59;100.00
41686;BME280;27370;42.764;23.432;2023-04-06T11:15:01;95167.44;;;7.31;100.00
41686;BME280;27370;42.764;23.432;2023-04-06T11:17:36;95169.81;;;6.42;100.00
41686;BME280;27370;42.764;23.432;2023-04-06T11:20:03;95159.41;;;6.58;100.00
41686;BME280;27370;42.764;23.432;2023-04-06T11:22:30;95145.63;;;6.31;100.00
41686;BME280;27370;42.764;23.432;2023-04-06T11:25:06;95158.53;;;6.72;100.00
41686;BME280;27370;42.764;23.432;2023-04-06T11:27:33;95154.63;;;6.87;100.00
41686;BME280;27370;42.764;23.432;2023-04-06T11:30:00;95159.78;;;7.23;100.00
41686;BME280;27370;42.764;23.432;2023-04-06T11:32:26;95147.50;;;7.18;100.00
41686;BME280;27370;42.764;23.432;2023-04-06T11:53:44;95150.53;;;6.61;100.00
41686;BME280;27370;42.764;23.432;2023-04-06T11:56:26;95152.41;;;6.68;100.00
41686;BME280;27370;42.764;23.432;2023-04-06T11:58:56;95139.94;;;6.99;100.00
41686;BME280;27370;42.764;23.432;2023-04-06T12:01:23;95146.06;;;7.58;95.13
41686;BME280;27370;42.764;23.432;2023-04-06T12:03:49;95145.72;;;7.97;100.00
41686;BME280;27370;42.764;23.432;2023-04-06T12:06:15;95142.41;;;8.20;97.21
41686;BME280;27370;42.764;23.432;2023-04-06T12:08:40;95139.81;;;8.10;93.49
41686;BME280;27370;42.764;23.432;2023-04-06T12:11:06;95140.22;;;7.67;94.55
41686;BME280;27370;42.764;23.432;2023-04-06T12:13:32;95145.97;;;7.21;98.83
41686;BME280;27370;42.764;23.432;2023-04-06T12:15:57;95135.28;;;7.10;100.00
41686;BME280;27370;42.764;23.432;2023-04-06T12:18:23;95144.00;;;7.28;96.43
41686;BME280;27370;42.764;23.432;2023-04-06T12:20:48;95134.25;;;7.45;96.80
41686;BME280;27370;42.764;23.432;2023-04-06T12:23:14;95116.16;;;7.46;93.64
41686;BME280;27370;42.764;23.432;2023-04-06T12:25:40;95129.47;;;7.63;98.28
41686;BME280;27370;42.764;23.432;2023-04-06T12:28:06;95131.03;;;7.61;99.21
41686;BME280;27370;42.764;23.432;2023-04-06T12:30:32;95126.34;;;7.72;97.66
41686;BME280;27370;42.764;23.432;2023-04-06T12:32:57;95140.28;;;7.60;97.05
41686;BME280;27370;42.764;23.432;2023-04-06T12:35:23;95133.44;;;7.52;93.87
41686;BME280;27370;42.764;23.432;2023-04-06T12:37:49;95118.06;;;7.49;94.77
41686;BME280;27370;42.764;23.432;2023-04-06T12:40:15;95123.69;;;7.17;94.03
41686;BME280;27370;42.764;23.432;2023-04-06T12:42:40;95130.44;;;7.39;93.39
41686;BME280;27370;42.764;23.432;2023-04-06T12:45:07;95113.78;;;7.55;96.00
41686;BME280;27370;42.764;23.432;2023-04-06T12:47:33;95119.22;;;7.48;96.74
41686;BME280;27370;42.764;23.432;2023-04-06T12:49:59;95119.25;;;7.85;90.99
41686;BME280;27370;42.764;23.432;2023-04-06T12:52:24;95116.88;;;7.53;87.39
41686;BME280;27370;42.764;23.432;2023-04-06T12:54:50;95114.44;;;7.70;85.19
41686;BME280;27370;42.764;23.432;2023-04-06T12:57:17;95110.00;;;7.45;88.55
41686;BME280;27370;42.764;23.432;2023-04-06T12:59:43;95109.41;;;7.23;88.82
41686;BME280;27370;42.764;23.432;2023-04-06T13:02:09;95105.06;;;6.85;87.35
41686;BME280;27370;42.764;23.432;2023-04-06T13:04:35;95104.28;;;6.88;95.79
41686;BME280;27370;42.764;23.432;2023-04-06T13:07:01;95094.50;;;7.12;90.26
41686;BME280;27370;42.764;23.432;2023-04-06T13:09:26;95109.94;;;7.04;91.96
41686;BME280;27370;42.764;23.432;2023-04-06T13:11:52;95094.47;;;7.15;92.59
41686;BME280;27370;42.764;23.432;2023-04-06T13:14:17;95103.91;;;7.37;87.49
41686;BME280;27370;42.764;23.432;2023-04-06T13:16:43;95099.97;;;7.46;96.06